<?xml version="1.0" encoding="utf-8"?>
<gpx xmlns:xsi="http://www.w3.org/2001/XMLSchema-instance" xmlns:xsd="http://www.w3.org/2001/XMLSchema" version="1.1" creator="Shapelink.com" xmlns="http://www.topografix.com/GPX/1/1" xmlns:gpxtpx="http://www.garmin.com/xmlschemas/TrackPointExtension/v1">
  <metadata>
    <name>Löpning 7.69 km, 2018-01-01</name>
    <desc></desc>
    <author><name>Bengt-Åke Forslund</name></author> 
    <time>2018-01-01T10:15:44Z</time>
  </metadata>
  <trk>
    <name>Löpning 7.69 km, 2018-01-01</name>
    <trkseg>
      <trkpt lat="59.8522044" lon="17.6079423">
        <ele>22.2476</ele>
        <time>2018-01-01T10:15:44Z</time>
      </trkpt>
      <trkpt lat="59.8522946" lon="17.6080817">
        <ele>24.651</ele>
        <time>2018-01-01T10:15:49Z</time>
      </trkpt>
      <trkpt lat="59.8524178" lon="17.6082108">
        <ele>31.3801</ele>
        <time>2018-01-01T10:15:55Z</time>
      </trkpt>
      <trkpt lat="59.8525156" lon="17.608347">
        <ele>32.3416</ele>
        <time>2018-01-01T10:16:01Z</time>
      </trkpt>
      <trkpt lat="59.8525899" lon="17.6084395">
        <ele>31.8607</ele>
        <time>2018-01-01T10:16:06Z</time>
      </trkpt>
      <trkpt lat="59.8526593" lon="17.6085616">
        <ele>31.3801</ele>
        <time>2018-01-01T10:16:11Z</time>
      </trkpt>
      <trkpt lat="59.8527623" lon="17.6086874">
        <ele>33.3029</ele>
        <time>2018-01-01T10:16:17Z</time>
      </trkpt>
      <trkpt lat="59.8528638" lon="17.6088293">
        <ele>33.3029</ele>
        <time>2018-01-01T10:16:23Z</time>
      </trkpt>
      <trkpt lat="59.8529627" lon="17.6089442">
        <ele>34.2642</ele>
        <time>2018-01-01T10:16:29Z</time>
      </trkpt>
      <trkpt lat="59.8530596" lon="17.6089639">
        <ele>36.1868</ele>
        <time>2018-01-01T10:16:34Z</time>
      </trkpt>
      <trkpt lat="59.8532016" lon="17.6089935">
        <ele>37.1481</ele>
        <time>2018-01-01T10:16:41Z</time>
      </trkpt>
      <trkpt lat="59.8533333" lon="17.6090246">
        <ele>37.1481</ele>
        <time>2018-01-01T10:16:48Z</time>
      </trkpt>
      <trkpt lat="59.8534596" lon="17.6090402">
        <ele>38.5901</ele>
        <time>2018-01-01T10:16:54Z</time>
      </trkpt>
      <trkpt lat="59.8535759" lon="17.609048">
        <ele>40.9934</ele>
        <time>2018-01-01T10:17:00Z</time>
      </trkpt>
      <trkpt lat="59.8537073" lon="17.6090769">
        <ele>45.7999</ele>
        <time>2018-01-01T10:17:06Z</time>
      </trkpt>
      <trkpt lat="59.8538527" lon="17.6091137">
        <ele>42.916</ele>
        <time>2018-01-01T10:17:14Z</time>
      </trkpt>
      <trkpt lat="59.8539359" lon="17.609085">
        <ele>32.3416</ele>
        <time>2018-01-01T10:17:20Z</time>
      </trkpt>
      <trkpt lat="59.8540506" lon="17.608986">
        <ele>29.4575</ele>
        <time>2018-01-01T10:17:27Z</time>
      </trkpt>
      <trkpt lat="59.8541635" lon="17.6088819">
        <ele>25.1317</ele>
        <time>2018-01-01T10:17:34Z</time>
      </trkpt>
      <trkpt lat="59.8542006" lon="17.6088454">
        <ele>22.7283</ele>
        <time>2018-01-01T10:17:37Z</time>
      </trkpt>
      <trkpt lat="59.8542693" lon="17.6087717">
        <ele>21.2864</ele>
        <time>2018-01-01T10:17:42Z</time>
      </trkpt>
      <trkpt lat="59.8543949" lon="17.6089158">
        <ele>17.9218</ele>
        <time>2018-01-01T10:17:49Z</time>
      </trkpt>
      <trkpt lat="59.8544848" lon="17.6091375">
        <ele>17.9218</ele>
        <time>2018-01-01T10:17:56Z</time>
      </trkpt>
      <trkpt lat="59.8544862" lon="17.6092197">
        <ele>17.9218</ele>
        <time>2018-01-01T10:17:58Z</time>
      </trkpt>
      <trkpt lat="59.8545625" lon="17.6095161">
        <ele>18.8831</ele>
        <time>2018-01-01T10:18:06Z</time>
      </trkpt>
      <trkpt lat="59.8546115" lon="17.6097389">
        <ele>17.4412</ele>
        <time>2018-01-01T10:18:12Z</time>
      </trkpt>
      <trkpt lat="59.8546622" lon="17.6099716">
        <ele>17.4412</ele>
        <time>2018-01-01T10:18:18Z</time>
      </trkpt>
      <trkpt lat="59.8547096" lon="17.6102484">
        <ele>17.4412</ele>
        <time>2018-01-01T10:18:25Z</time>
      </trkpt>
      <trkpt lat="59.8547072" lon="17.6104417">
        <ele>17.4412</ele>
        <time>2018-01-01T10:18:30Z</time>
      </trkpt>
      <trkpt lat="59.8547411" lon="17.6105796">
        <ele>16.9604</ele>
        <time>2018-01-01T10:18:34Z</time>
      </trkpt>
      <trkpt lat="59.8548219" lon="17.610806">
        <ele>16.4797</ele>
        <time>2018-01-01T10:18:41Z</time>
      </trkpt>
      <trkpt lat="59.8548865" lon="17.6110504">
        <ele>15.999</ele>
        <time>2018-01-01T10:18:48Z</time>
      </trkpt>
      <trkpt lat="59.854923" lon="17.6113046">
        <ele>15.999</ele>
        <time>2018-01-01T10:18:54Z</time>
      </trkpt>
      <trkpt lat="59.8549747" lon="17.611637">
        <ele>15.999</ele>
        <time>2018-01-01T10:19:02Z</time>
      </trkpt>
      <trkpt lat="59.8550125" lon="17.6118854">
        <ele>16.9604</ele>
        <time>2018-01-01T10:19:08Z</time>
      </trkpt>
      <trkpt lat="59.8550553" lon="17.612172">
        <ele>17.4412</ele>
        <time>2018-01-01T10:19:15Z</time>
      </trkpt>
      <trkpt lat="59.8550979" lon="17.6124544">
        <ele>17.9218</ele>
        <time>2018-01-01T10:19:22Z</time>
      </trkpt>
      <trkpt lat="59.8551393" lon="17.6127371">
        <ele>18.8831</ele>
        <time>2018-01-01T10:19:29Z</time>
      </trkpt>
      <trkpt lat="59.8551835" lon="17.6129677">
        <ele>19.8444</ele>
        <time>2018-01-01T10:19:35Z</time>
      </trkpt>
      <trkpt lat="59.8552126" lon="17.6131784">
        <ele>19.8444</ele>
        <time>2018-01-01T10:19:40Z</time>
      </trkpt>
      <trkpt lat="59.855254" lon="17.6134134">
        <ele>19.3638</ele>
        <time>2018-01-01T10:19:46Z</time>
      </trkpt>
      <trkpt lat="59.8552921" lon="17.6136498">
        <ele>19.3638</ele>
        <time>2018-01-01T10:19:52Z</time>
      </trkpt>
      <trkpt lat="59.8553057" lon="17.6138959">
        <ele>20.325</ele>
        <time>2018-01-01T10:19:58Z</time>
      </trkpt>
      <trkpt lat="59.8552722" lon="17.6142099">
        <ele>20.8057</ele>
        <time>2018-01-01T10:20:06Z</time>
      </trkpt>
      <trkpt lat="59.8552002" lon="17.6143944">
        <ele>20.8057</ele>
        <time>2018-01-01T10:20:12Z</time>
      </trkpt>
      <trkpt lat="59.8551581" lon="17.614463">
        <ele>20.8057</ele>
        <time>2018-01-01T10:20:15Z</time>
      </trkpt>
      <trkpt lat="59.8551948" lon="17.614564">
        <ele>19.3638</ele>
        <time>2018-01-01T10:20:20Z</time>
      </trkpt>
      <trkpt lat="59.8552514" lon="17.6147559">
        <ele>17.9218</ele>
        <time>2018-01-01T10:20:25Z</time>
      </trkpt>
      <trkpt lat="59.8553343" lon="17.6149827">
        <ele>16.9604</ele>
        <time>2018-01-01T10:20:32Z</time>
      </trkpt>
      <trkpt lat="59.8553731" lon="17.6151997">
        <ele>16.4797</ele>
        <time>2018-01-01T10:20:38Z</time>
      </trkpt>
      <trkpt lat="59.8553824" lon="17.6155463">
        <ele>15.5184</ele>
        <time>2018-01-01T10:20:47Z</time>
      </trkpt>
      <trkpt lat="59.8554025" lon="17.6157742">
        <ele>15.0377</ele>
        <time>2018-01-01T10:20:53Z</time>
      </trkpt>
      <trkpt lat="59.8554192" lon="17.6160507">
        <ele>15.999</ele>
        <time>2018-01-01T10:21:00Z</time>
      </trkpt>
      <trkpt lat="59.8554467" lon="17.6163533">
        <ele>17.4412</ele>
        <time>2018-01-01T10:21:08Z</time>
      </trkpt>
      <trkpt lat="59.8554663" lon="17.6166735">
        <ele>17.4412</ele>
        <time>2018-01-01T10:21:16Z</time>
      </trkpt>
      <trkpt lat="59.855501" lon="17.6169108">
        <ele>16.4797</ele>
        <time>2018-01-01T10:21:22Z</time>
      </trkpt>
      <trkpt lat="59.8555233" lon="17.6171996">
        <ele>17.9218</ele>
        <time>2018-01-01T10:21:29Z</time>
      </trkpt>
      <trkpt lat="59.855533" lon="17.6174831">
        <ele>15.999</ele>
        <time>2018-01-01T10:21:36Z</time>
      </trkpt>
      <trkpt lat="59.8555461" lon="17.617757">
        <ele>15.0377</ele>
        <time>2018-01-01T10:21:43Z</time>
      </trkpt>
      <trkpt lat="59.8555653" lon="17.6180809">
        <ele>15.0377</ele>
        <time>2018-01-01T10:21:51Z</time>
      </trkpt>
      <trkpt lat="59.8555873" lon="17.6183704">
        <ele>15.999</ele>
        <time>2018-01-01T10:21:58Z</time>
      </trkpt>
      <trkpt lat="59.8556322" lon="17.6186392">
        <ele>16.4797</ele>
        <time>2018-01-01T10:22:05Z</time>
      </trkpt>
      <trkpt lat="59.8556838" lon="17.6188821">
        <ele>16.9604</ele>
        <time>2018-01-01T10:22:11Z</time>
      </trkpt>
      <trkpt lat="59.8557432" lon="17.6191527">
        <ele>17.4412</ele>
        <time>2018-01-01T10:22:18Z</time>
      </trkpt>
      <trkpt lat="59.8557865" lon="17.6193878">
        <ele>18.4023</ele>
        <time>2018-01-01T10:22:24Z</time>
      </trkpt>
      <trkpt lat="59.8557818" lon="17.6196712">
        <ele>20.325</ele>
        <time>2018-01-01T10:22:31Z</time>
      </trkpt>
      <trkpt lat="59.8557718" lon="17.6197474">
        <ele>20.325</ele>
        <time>2018-01-01T10:22:33Z</time>
      </trkpt>
      <trkpt lat="59.8558179" lon="17.6201585">
        <ele>19.8444</ele>
        <time>2018-01-01T10:22:43Z</time>
      </trkpt>
      <trkpt lat="59.8558781" lon="17.6204528">
        <ele>19.3638</ele>
        <time>2018-01-01T10:22:50Z</time>
      </trkpt>
      <trkpt lat="59.8559413" lon="17.6207384">
        <ele>19.3638</ele>
        <time>2018-01-01T10:22:57Z</time>
      </trkpt>
      <trkpt lat="59.8559895" lon="17.6209961">
        <ele>18.8831</ele>
        <time>2018-01-01T10:23:03Z</time>
      </trkpt>
      <trkpt lat="59.8560465" lon="17.6212456">
        <ele>17.9218</ele>
        <time>2018-01-01T10:23:09Z</time>
      </trkpt>
      <trkpt lat="59.8560951" lon="17.6214418">
        <ele>18.4023</ele>
        <time>2018-01-01T10:23:14Z</time>
      </trkpt>
      <trkpt lat="59.8561932" lon="17.6217447">
        <ele>17.9218</ele>
        <time>2018-01-01T10:23:22Z</time>
      </trkpt>
      <trkpt lat="59.8562599" lon="17.6219246">
        <ele>17.9218</ele>
        <time>2018-01-01T10:23:27Z</time>
      </trkpt>
      <trkpt lat="59.8563335" lon="17.6220982">
        <ele>17.9218</ele>
        <time>2018-01-01T10:23:32Z</time>
      </trkpt>
      <trkpt lat="59.8564118" lon="17.6222768">
        <ele>18.4023</ele>
        <time>2018-01-01T10:23:37Z</time>
      </trkpt>
      <trkpt lat="59.8565111" lon="17.6225167">
        <ele>17.9218</ele>
        <time>2018-01-01T10:23:44Z</time>
      </trkpt>
      <trkpt lat="59.8566138" lon="17.622757">
        <ele>17.4412</ele>
        <time>2018-01-01T10:23:51Z</time>
      </trkpt>
      <trkpt lat="59.8566988" lon="17.622926">
        <ele>17.4412</ele>
        <time>2018-01-01T10:23:57Z</time>
      </trkpt>
      <trkpt lat="59.856782" lon="17.6231046">
        <ele>16.9604</ele>
        <time>2018-01-01T10:24:03Z</time>
      </trkpt>
      <trkpt lat="59.8568638" lon="17.6233206">
        <ele>16.4797</ele>
        <time>2018-01-01T10:24:09Z</time>
      </trkpt>
      <trkpt lat="59.8569915" lon="17.6236009">
        <ele>15.999</ele>
        <time>2018-01-01T10:24:17Z</time>
      </trkpt>
      <trkpt lat="59.8571011" lon="17.6238532">
        <ele>15.999</ele>
        <time>2018-01-01T10:24:24Z</time>
      </trkpt>
      <trkpt lat="59.857198" lon="17.6240672">
        <ele>16.9604</ele>
        <time>2018-01-01T10:24:30Z</time>
      </trkpt>
      <trkpt lat="59.8573388" lon="17.6243773">
        <ele>17.4412</ele>
        <time>2018-01-01T10:24:39Z</time>
      </trkpt>
      <trkpt lat="59.8574493" lon="17.624612">
        <ele>17.4412</ele>
        <time>2018-01-01T10:24:46Z</time>
      </trkpt>
      <trkpt lat="59.8575908" lon="17.6248575">
        <ele>18.8831</ele>
        <time>2018-01-01T10:24:54Z</time>
      </trkpt>
      <trkpt lat="59.8576445" lon="17.6249275">
        <ele>19.3638</ele>
        <time>2018-01-01T10:24:57Z</time>
      </trkpt>
      <trkpt lat="59.8577595" lon="17.6248491">
        <ele>19.3638</ele>
        <time>2018-01-01T10:25:03Z</time>
      </trkpt>
      <trkpt lat="59.857876" lon="17.6247142">
        <ele>18.8831</ele>
        <time>2018-01-01T10:25:09Z</time>
      </trkpt>
      <trkpt lat="59.8579936" lon="17.6244778">
        <ele>18.8831</ele>
        <time>2018-01-01T10:25:16Z</time>
      </trkpt>
      <trkpt lat="59.8581098" lon="17.6242494">
        <ele>17.4412</ele>
        <time>2018-01-01T10:25:23Z</time>
      </trkpt>
      <trkpt lat="59.8582004" lon="17.6241032">
        <ele>17.4412</ele>
        <time>2018-01-01T10:25:28Z</time>
      </trkpt>
      <trkpt lat="59.8582937" lon="17.6239801">
        <ele>15.0377</ele>
        <time>2018-01-01T10:25:34Z</time>
      </trkpt>
      <trkpt lat="59.8583573" lon="17.6238102">
        <ele>15.5184</ele>
        <time>2018-01-01T10:25:39Z</time>
      </trkpt>
      <trkpt lat="59.8584459" lon="17.6236168">
        <ele>18.8831</ele>
        <time>2018-01-01T10:25:44Z</time>
      </trkpt>
      <trkpt lat="59.8585863" lon="17.6233637">
        <ele>17.9218</ele>
        <time>2018-01-01T10:25:52Z</time>
      </trkpt>
      <trkpt lat="59.85866" lon="17.623192">
        <ele>18.8831</ele>
        <time>2018-01-01T10:25:57Z</time>
      </trkpt>
      <trkpt lat="59.8587757" lon="17.6229868">
        <ele>18.8831</ele>
        <time>2018-01-01T10:26:04Z</time>
      </trkpt>
      <trkpt lat="59.8589328" lon="17.6227185">
        <ele>17.4412</ele>
        <time>2018-01-01T10:26:13Z</time>
      </trkpt>
      <trkpt lat="59.8590531" lon="17.6225198">
        <ele>15.999</ele>
        <time>2018-01-01T10:26:20Z</time>
      </trkpt>
      <trkpt lat="59.8591581" lon="17.6223572">
        <ele>15.999</ele>
        <time>2018-01-01T10:26:26Z</time>
      </trkpt>
      <trkpt lat="59.8592229" lon="17.622238">
        <ele>15.999</ele>
        <time>2018-01-01T10:26:30Z</time>
      </trkpt>
      <trkpt lat="59.85933" lon="17.6220737">
        <ele>15.0377</ele>
        <time>2018-01-01T10:26:36Z</time>
      </trkpt>
      <trkpt lat="59.8594524" lon="17.6218778">
        <ele>15.0377</ele>
        <time>2018-01-01T10:26:43Z</time>
      </trkpt>
      <trkpt lat="59.8595572" lon="17.6217066">
        <ele>15.999</ele>
        <time>2018-01-01T10:26:49Z</time>
      </trkpt>
      <trkpt lat="59.859611" lon="17.6215609">
        <ele>16.4797</ele>
        <time>2018-01-01T10:26:53Z</time>
      </trkpt>
      <trkpt lat="59.859706" lon="17.621365">
        <ele>16.4797</ele>
        <time>2018-01-01T10:26:59Z</time>
      </trkpt>
      <trkpt lat="59.8598378" lon="17.6211059">
        <ele>16.4797</ele>
        <time>2018-01-01T10:27:07Z</time>
      </trkpt>
      <trkpt lat="59.8599596" lon="17.6208954">
        <ele>15.5184</ele>
        <time>2018-01-01T10:27:14Z</time>
      </trkpt>
      <trkpt lat="59.8600816" lon="17.620675">
        <ele>15.999</ele>
        <time>2018-01-01T10:27:21Z</time>
      </trkpt>
      <trkpt lat="59.8602026" lon="17.6204586">
        <ele>15.5184</ele>
        <time>2018-01-01T10:27:28Z</time>
      </trkpt>
      <trkpt lat="59.8603096" lon="17.6202202">
        <ele>15.999</ele>
        <time>2018-01-01T10:27:35Z</time>
      </trkpt>
      <trkpt lat="59.8604293" lon="17.6199959">
        <ele>16.4797</ele>
        <time>2018-01-01T10:27:42Z</time>
      </trkpt>
      <trkpt lat="59.8605014" lon="17.6198151">
        <ele>17.9218</ele>
        <time>2018-01-01T10:27:47Z</time>
      </trkpt>
      <trkpt lat="59.8605939" lon="17.6196078">
        <ele>18.4023</ele>
        <time>2018-01-01T10:27:53Z</time>
      </trkpt>
      <trkpt lat="59.8606738" lon="17.6194614">
        <ele>17.9218</ele>
        <time>2018-01-01T10:27:58Z</time>
      </trkpt>
      <trkpt lat="59.8607165" lon="17.6193091">
        <ele>18.4023</ele>
        <time>2018-01-01T10:28:04Z</time>
      </trkpt>
      <trkpt lat="59.860799" lon="17.6191639">
        <ele>19.8444</ele>
        <time>2018-01-01T10:28:09Z</time>
      </trkpt>
      <trkpt lat="59.860928" lon="17.6190573">
        <ele>20.325</ele>
        <time>2018-01-01T10:28:15Z</time>
      </trkpt>
      <trkpt lat="59.8609484" lon="17.6190453">
        <ele>20.325</ele>
        <time>2018-01-01T10:28:16Z</time>
      </trkpt>
      <trkpt lat="59.8610861" lon="17.6188432">
        <ele>21.2864</ele>
        <time>2018-01-01T10:28:23Z</time>
      </trkpt>
      <trkpt lat="59.8611964" lon="17.6186254">
        <ele>20.325</ele>
        <time>2018-01-01T10:28:30Z</time>
      </trkpt>
      <trkpt lat="59.8612965" lon="17.618442">
        <ele>20.8057</ele>
        <time>2018-01-01T10:28:36Z</time>
      </trkpt>
      <trkpt lat="59.8614125" lon="17.6182234">
        <ele>20.325</ele>
        <time>2018-01-01T10:28:43Z</time>
      </trkpt>
      <trkpt lat="59.8614979" lon="17.6180985">
        <ele>19.8444</ele>
        <time>2018-01-01T10:28:48Z</time>
      </trkpt>
      <trkpt lat="59.8616056" lon="17.6178307">
        <ele>21.2864</ele>
        <time>2018-01-01T10:28:55Z</time>
      </trkpt>
      <trkpt lat="59.8617169" lon="17.6176005">
        <ele>21.2864</ele>
        <time>2018-01-01T10:29:02Z</time>
      </trkpt>
      <trkpt lat="59.8618367" lon="17.6174438">
        <ele>21.767</ele>
        <time>2018-01-01T10:29:08Z</time>
      </trkpt>
      <trkpt lat="59.8619284" lon="17.6172244">
        <ele>23.6896</ele>
        <time>2018-01-01T10:29:14Z</time>
      </trkpt>
      <trkpt lat="59.8620133" lon="17.6170304">
        <ele>22.7283</ele>
        <time>2018-01-01T10:29:20Z</time>
      </trkpt>
      <trkpt lat="59.8620601" lon="17.6168754">
        <ele>21.2864</ele>
        <time>2018-01-01T10:29:24Z</time>
      </trkpt>
      <trkpt lat="59.8621113" lon="17.6166822">
        <ele>18.4023</ele>
        <time>2018-01-01T10:29:29Z</time>
      </trkpt>
      <trkpt lat="59.8621388" lon="17.6166145">
        <ele>16.9604</ele>
        <time>2018-01-01T10:29:31Z</time>
      </trkpt>
      <trkpt lat="59.8622123" lon="17.616401">
        <ele>14.557</ele>
        <time>2018-01-01T10:29:37Z</time>
      </trkpt>
      <trkpt lat="59.8623045" lon="17.6161581">
        <ele>15.5184</ele>
        <time>2018-01-01T10:29:44Z</time>
      </trkpt>
      <trkpt lat="59.8623893" lon="17.615956">
        <ele>14.557</ele>
        <time>2018-01-01T10:29:50Z</time>
      </trkpt>
      <trkpt lat="59.8624445" lon="17.6157727">
        <ele>15.0377</ele>
        <time>2018-01-01T10:29:55Z</time>
      </trkpt>
      <trkpt lat="59.8625122" lon="17.6155583">
        <ele>13.5958</ele>
        <time>2018-01-01T10:30:01Z</time>
      </trkpt>
      <trkpt lat="59.8625775" lon="17.6153369">
        <ele>12.6344</ele>
        <time>2018-01-01T10:30:07Z</time>
      </trkpt>
      <trkpt lat="59.8626682" lon="17.6149866">
        <ele>15.5184</ele>
        <time>2018-01-01T10:30:15Z</time>
      </trkpt>
      <trkpt lat="59.8627242" lon="17.6147822">
        <ele>17.4412</ele>
        <time>2018-01-01T10:30:20Z</time>
      </trkpt>
      <trkpt lat="59.862749" lon="17.6146051">
        <ele>18.4023</ele>
        <time>2018-01-01T10:30:24Z</time>
      </trkpt>
      <trkpt lat="59.8627666" lon="17.6142938">
        <ele>17.9218</ele>
        <time>2018-01-01T10:30:31Z</time>
      </trkpt>
      <trkpt lat="59.8628592" lon="17.6140757">
        <ele>16.9604</ele>
        <time>2018-01-01T10:30:37Z</time>
      </trkpt>
      <trkpt lat="59.8629566" lon="17.6139301">
        <ele>16.9604</ele>
        <time>2018-01-01T10:30:42Z</time>
      </trkpt>
      <trkpt lat="59.8630114" lon="17.613726">
        <ele>16.9604</ele>
        <time>2018-01-01T10:30:47Z</time>
      </trkpt>
      <trkpt lat="59.8630539" lon="17.6134436">
        <ele>17.4412</ele>
        <time>2018-01-01T10:30:53Z</time>
      </trkpt>
      <trkpt lat="59.8630838" lon="17.6131095">
        <ele>18.4023</ele>
        <time>2018-01-01T10:31:00Z</time>
      </trkpt>
      <trkpt lat="59.8631076" lon="17.6128312">
        <ele>19.8444</ele>
        <time>2018-01-01T10:31:06Z</time>
      </trkpt>
      <trkpt lat="59.8631534" lon="17.6126756">
        <ele>21.2864</ele>
        <time>2018-01-01T10:31:10Z</time>
      </trkpt>
      <trkpt lat="59.8632327" lon="17.6123754">
        <ele>22.2476</ele>
        <time>2018-01-01T10:31:17Z</time>
      </trkpt>
      <trkpt lat="59.8633073" lon="17.6121415">
        <ele>21.767</ele>
        <time>2018-01-01T10:31:23Z</time>
      </trkpt>
      <trkpt lat="59.8633709" lon="17.6120104">
        <ele>20.8057</ele>
        <time>2018-01-01T10:31:27Z</time>
      </trkpt>
      <trkpt lat="59.8634534" lon="17.6118548">
        <ele>20.8057</ele>
        <time>2018-01-01T10:31:32Z</time>
      </trkpt>
      <trkpt lat="59.8634851" lon="17.6117845">
        <ele>20.8057</ele>
        <time>2018-01-01T10:31:34Z</time>
      </trkpt>
      <trkpt lat="59.8635597" lon="17.6116219">
        <ele>20.325</ele>
        <time>2018-01-01T10:31:39Z</time>
      </trkpt>
      <trkpt lat="59.8636631" lon="17.6114369">
        <ele>20.325</ele>
        <time>2018-01-01T10:31:45Z</time>
      </trkpt>
      <trkpt lat="59.8637462" lon="17.6112748">
        <ele>20.325</ele>
        <time>2018-01-01T10:31:50Z</time>
      </trkpt>
      <trkpt lat="59.8638817" lon="17.6110484">
        <ele>19.8444</ele>
        <time>2018-01-01T10:31:57Z</time>
      </trkpt>
      <trkpt lat="59.8639755" lon="17.6108936">
        <ele>20.325</ele>
        <time>2018-01-01T10:32:02Z</time>
      </trkpt>
      <trkpt lat="59.8640688" lon="17.6106728">
        <ele>20.8057</ele>
        <time>2018-01-01T10:32:08Z</time>
      </trkpt>
      <trkpt lat="59.8641711" lon="17.6104839">
        <ele>20.325</ele>
        <time>2018-01-01T10:32:14Z</time>
      </trkpt>
      <trkpt lat="59.8642788" lon="17.6104019">
        <ele>20.325</ele>
        <time>2018-01-01T10:32:19Z</time>
      </trkpt>
      <trkpt lat="59.8644212" lon="17.610261">
        <ele>19.3638</ele>
        <time>2018-01-01T10:32:26Z</time>
      </trkpt>
      <trkpt lat="59.864489" lon="17.6101958">
        <ele>18.8831</ele>
        <time>2018-01-01T10:32:29Z</time>
      </trkpt>
      <trkpt lat="59.8646251" lon="17.6102563">
        <ele>18.4023</ele>
        <time>2018-01-01T10:32:34Z</time>
      </trkpt>
      <trkpt lat="59.8647385" lon="17.6102451">
        <ele>19.3638</ele>
        <time>2018-01-01T10:32:39Z</time>
      </trkpt>
      <trkpt lat="59.8648973" lon="17.6101632">
        <ele>17.9218</ele>
        <time>2018-01-01T10:32:46Z</time>
      </trkpt>
      <trkpt lat="59.8650377" lon="17.6100914">
        <ele>16.9604</ele>
        <time>2018-01-01T10:32:52Z</time>
      </trkpt>
      <trkpt lat="59.8651758" lon="17.610011">
        <ele>16.9604</ele>
        <time>2018-01-01T10:32:58Z</time>
      </trkpt>
      <trkpt lat="59.8653312" lon="17.6099083">
        <ele>17.9218</ele>
        <time>2018-01-01T10:33:05Z</time>
      </trkpt>
      <trkpt lat="59.8654751" lon="17.6098393">
        <ele>18.8831</ele>
        <time>2018-01-01T10:33:11Z</time>
      </trkpt>
      <trkpt lat="59.8655855" lon="17.6097615">
        <ele>19.3638</ele>
        <time>2018-01-01T10:33:16Z</time>
      </trkpt>
      <trkpt lat="59.8657383" lon="17.6096399">
        <ele>18.8831</ele>
        <time>2018-01-01T10:33:23Z</time>
      </trkpt>
      <trkpt lat="59.8657992" lon="17.6095815">
        <ele>18.4023</ele>
        <time>2018-01-01T10:33:26Z</time>
      </trkpt>
      <trkpt lat="59.8658861" lon="17.6095099">
        <ele>17.9218</ele>
        <time>2018-01-01T10:33:30Z</time>
      </trkpt>
      <trkpt lat="59.866028" lon="17.6095005">
        <ele>15.5184</ele>
        <time>2018-01-01T10:33:36Z</time>
      </trkpt>
      <trkpt lat="59.8660524" lon="17.6095045">
        <ele>14.557</ele>
        <time>2018-01-01T10:33:37Z</time>
      </trkpt>
      <trkpt lat="59.8661932" lon="17.6093462">
        <ele>13.5958</ele>
        <time>2018-01-01T10:33:44Z</time>
      </trkpt>
      <trkpt lat="59.8662906" lon="17.6091245">
        <ele>13.1151</ele>
        <time>2018-01-01T10:33:51Z</time>
      </trkpt>
      <trkpt lat="59.8663163" lon="17.6089515">
        <ele>13.1151</ele>
        <time>2018-01-01T10:33:55Z</time>
      </trkpt>
      <trkpt lat="59.8663254" lon="17.6088737">
        <ele>13.5958</ele>
        <time>2018-01-01T10:33:57Z</time>
      </trkpt>
      <trkpt lat="59.8664316" lon="17.6086972">
        <ele>14.0764</ele>
        <time>2018-01-01T10:34:03Z</time>
      </trkpt>
      <trkpt lat="59.8665208" lon="17.6085968">
        <ele>13.1151</ele>
        <time>2018-01-01T10:34:08Z</time>
      </trkpt>
      <trkpt lat="59.8666009" lon="17.6085102">
        <ele>14.0764</ele>
        <time>2018-01-01T10:34:12Z</time>
      </trkpt>
      <trkpt lat="59.8666818" lon="17.6084739">
        <ele>13.1151</ele>
        <time>2018-01-01T10:34:17Z</time>
      </trkpt>
      <trkpt lat="59.8668009" lon="17.6083352">
        <ele>12.6344</ele>
        <time>2018-01-01T10:34:24Z</time>
      </trkpt>
      <trkpt lat="59.8669245" lon="17.6081727">
        <ele>15.0377</ele>
        <time>2018-01-01T10:34:30Z</time>
      </trkpt>
      <trkpt lat="59.8670925" lon="17.6079169">
        <ele>19.8444</ele>
        <time>2018-01-01T10:34:38Z</time>
      </trkpt>
      <trkpt lat="59.8672159" lon="17.6077509">
        <ele>20.8057</ele>
        <time>2018-01-01T10:34:44Z</time>
      </trkpt>
      <trkpt lat="59.86734" lon="17.6076198">
        <ele>20.325</ele>
        <time>2018-01-01T10:34:50Z</time>
      </trkpt>
      <trkpt lat="59.8674169" lon="17.6075176">
        <ele>19.8444</ele>
        <time>2018-01-01T10:34:54Z</time>
      </trkpt>
      <trkpt lat="59.867528" lon="17.6074144">
        <ele>19.8444</ele>
        <time>2018-01-01T10:34:59Z</time>
      </trkpt>
      <trkpt lat="59.8675722" lon="17.6073924">
        <ele>19.8444</ele>
        <time>2018-01-01T10:35:01Z</time>
      </trkpt>
      <trkpt lat="59.8677198" lon="17.6072508">
        <ele>19.8444</ele>
        <time>2018-01-01T10:35:08Z</time>
      </trkpt>
      <trkpt lat="59.867944" lon="17.6070461">
        <ele>16.9604</ele>
        <time>2018-01-01T10:35:19Z</time>
      </trkpt>
      <trkpt lat="59.8680608" lon="17.6069204">
        <ele>15.999</ele>
        <time>2018-01-01T10:35:25Z</time>
      </trkpt>
      <trkpt lat="59.8681535" lon="17.6068269">
        <ele>15.0377</ele>
        <time>2018-01-01T10:35:30Z</time>
      </trkpt>
      <trkpt lat="59.8682561" lon="17.6067237">
        <ele>14.557</ele>
        <time>2018-01-01T10:35:35Z</time>
      </trkpt>
      <trkpt lat="59.8683777" lon="17.6065895">
        <ele>13.5958</ele>
        <time>2018-01-01T10:35:41Z</time>
      </trkpt>
      <trkpt lat="59.8684467" lon="17.6063416">
        <ele>14.557</ele>
        <time>2018-01-01T10:35:47Z</time>
      </trkpt>
      <trkpt lat="59.8685512" lon="17.6062136">
        <ele>14.0764</ele>
        <time>2018-01-01T10:35:52Z</time>
      </trkpt>
      <trkpt lat="59.8686367" lon="17.6061382">
        <ele>14.0764</ele>
        <time>2018-01-01T10:35:56Z</time>
      </trkpt>
      <trkpt lat="59.8688026" lon="17.6060398">
        <ele>13.1151</ele>
        <time>2018-01-01T10:36:03Z</time>
      </trkpt>
      <trkpt lat="59.8689245" lon="17.6059067">
        <ele>12.6344</ele>
        <time>2018-01-01T10:36:09Z</time>
      </trkpt>
      <trkpt lat="59.8690947" lon="17.6057265">
        <ele>13.5958</ele>
        <time>2018-01-01T10:36:17Z</time>
      </trkpt>
      <trkpt lat="59.8692251" lon="17.6056114">
        <ele>14.0764</ele>
        <time>2018-01-01T10:36:23Z</time>
      </trkpt>
      <trkpt lat="59.8693055" lon="17.6055324">
        <ele>13.5958</ele>
        <time>2018-01-01T10:36:27Z</time>
      </trkpt>
      <trkpt lat="59.8694267" lon="17.605383">
        <ele>13.5958</ele>
        <time>2018-01-01T10:36:33Z</time>
      </trkpt>
      <trkpt lat="59.8695962" lon="17.6052737">
        <ele>15.0377</ele>
        <time>2018-01-01T10:36:40Z</time>
      </trkpt>
      <trkpt lat="59.8697613" lon="17.6051714">
        <ele>15.0377</ele>
        <time>2018-01-01T10:36:47Z</time>
      </trkpt>
      <trkpt lat="59.8699077" lon="17.604996">
        <ele>14.557</ele>
        <time>2018-01-01T10:36:54Z</time>
      </trkpt>
      <trkpt lat="59.8700592" lon="17.6047597">
        <ele>15.0377</ele>
        <time>2018-01-01T10:37:02Z</time>
      </trkpt>
      <trkpt lat="59.8701654" lon="17.6045655">
        <ele>15.0377</ele>
        <time>2018-01-01T10:37:08Z</time>
      </trkpt>
      <trkpt lat="59.8702831" lon="17.6043443">
        <ele>15.5184</ele>
        <time>2018-01-01T10:37:15Z</time>
      </trkpt>
      <trkpt lat="59.8703777" lon="17.604152">
        <ele>15.5184</ele>
        <time>2018-01-01T10:37:21Z</time>
      </trkpt>
      <trkpt lat="59.8704394" lon="17.6039652">
        <ele>16.4797</ele>
        <time>2018-01-01T10:37:26Z</time>
      </trkpt>
      <trkpt lat="59.8705596" lon="17.6036938">
        <ele>16.4797</ele>
        <time>2018-01-01T10:37:33Z</time>
      </trkpt>
      <trkpt lat="59.8706467" lon="17.6034679">
        <ele>16.4797</ele>
        <time>2018-01-01T10:37:39Z</time>
      </trkpt>
      <trkpt lat="59.8707667" lon="17.6031778">
        <ele>15.5184</ele>
        <time>2018-01-01T10:37:47Z</time>
      </trkpt>
      <trkpt lat="59.870816" lon="17.6031327">
        <ele>15.5184</ele>
        <time>2018-01-01T10:37:49Z</time>
      </trkpt>
      <trkpt lat="59.8708836" lon="17.6029794">
        <ele>14.557</ele>
        <time>2018-01-01T10:37:53Z</time>
      </trkpt>
      <trkpt lat="59.8709718" lon="17.602711">
        <ele>13.1151</ele>
        <time>2018-01-01T10:38:00Z</time>
      </trkpt>
      <trkpt lat="59.8710368" lon="17.6024819">
        <ele>13.1151</ele>
        <time>2018-01-01T10:38:06Z</time>
      </trkpt>
      <trkpt lat="59.8711299" lon="17.6022417">
        <ele>13.1151</ele>
        <time>2018-01-01T10:38:13Z</time>
      </trkpt>
      <trkpt lat="59.8711827" lon="17.6020449">
        <ele>13.1151</ele>
        <time>2018-01-01T10:38:18Z</time>
      </trkpt>
      <trkpt lat="59.8712359" lon="17.6018371">
        <ele>12.6344</ele>
        <time>2018-01-01T10:38:23Z</time>
      </trkpt>
      <trkpt lat="59.8712775" lon="17.6015775">
        <ele>12.1538</ele>
        <time>2018-01-01T10:38:29Z</time>
      </trkpt>
      <trkpt lat="59.8713625" lon="17.6013332">
        <ele>11.6732</ele>
        <time>2018-01-01T10:38:35Z</time>
      </trkpt>
      <trkpt lat="59.8714693" lon="17.6011154">
        <ele>11.1925</ele>
        <time>2018-01-01T10:38:41Z</time>
      </trkpt>
      <trkpt lat="59.8715588" lon="17.6008747">
        <ele>11.1925</ele>
        <time>2018-01-01T10:38:47Z</time>
      </trkpt>
      <trkpt lat="59.8716412" lon="17.6006316">
        <ele>11.1925</ele>
        <time>2018-01-01T10:38:53Z</time>
      </trkpt>
      <trkpt lat="59.8717282" lon="17.600408">
        <ele>10.7118</ele>
        <time>2018-01-01T10:38:59Z</time>
      </trkpt>
      <trkpt lat="59.8718059" lon="17.6002117">
        <ele>10.2312</ele>
        <time>2018-01-01T10:39:05Z</time>
      </trkpt>
      <trkpt lat="59.87188" lon="17.6000358">
        <ele>6.38586</ele>
        <time>2018-01-01T10:39:11Z</time>
      </trkpt>
      <trkpt lat="59.8719654" lon="17.5998229">
        <ele>8.78918</ele>
        <time>2018-01-01T10:39:17Z</time>
      </trkpt>
      <trkpt lat="59.8720259" lon="17.5996815">
        <ele>8.30859</ele>
        <time>2018-01-01T10:39:21Z</time>
      </trkpt>
      <trkpt lat="59.8721421" lon="17.5994289">
        <ele>10.7118</ele>
        <time>2018-01-01T10:39:28Z</time>
      </trkpt>
      <trkpt lat="59.8722343" lon="17.5992176">
        <ele>11.6732</ele>
        <time>2018-01-01T10:39:34Z</time>
      </trkpt>
      <trkpt lat="59.8723285" lon="17.5990228">
        <ele>12.1538</ele>
        <time>2018-01-01T10:39:40Z</time>
      </trkpt>
      <trkpt lat="59.872401" lon="17.5988507">
        <ele>12.1538</ele>
        <time>2018-01-01T10:39:45Z</time>
      </trkpt>
      <trkpt lat="59.8724974" lon="17.5987238">
        <ele>12.6344</ele>
        <time>2018-01-01T10:39:50Z</time>
      </trkpt>
      <trkpt lat="59.8726185" lon="17.5986728">
        <ele>13.1151</ele>
        <time>2018-01-01T10:39:55Z</time>
      </trkpt>
      <trkpt lat="59.8727224" lon="17.5986799">
        <ele>13.1151</ele>
        <time>2018-01-01T10:40:00Z</time>
      </trkpt>
      <trkpt lat="59.8728324" lon="17.5985373">
        <ele>14.0764</ele>
        <time>2018-01-01T10:40:06Z</time>
      </trkpt>
      <trkpt lat="59.8728552" lon="17.5985336">
        <ele>14.0764</ele>
        <time>2018-01-01T10:40:07Z</time>
      </trkpt>
      <trkpt lat="59.8729356" lon="17.5986398">
        <ele>13.5958</ele>
        <time>2018-01-01T10:40:11Z</time>
      </trkpt>
      <trkpt lat="59.8730351" lon="17.5989095">
        <ele>13.1151</ele>
        <time>2018-01-01T10:40:18Z</time>
      </trkpt>
      <trkpt lat="59.8730983" lon="17.5991663">
        <ele>12.6344</ele>
        <time>2018-01-01T10:40:24Z</time>
      </trkpt>
      <trkpt lat="59.8731391" lon="17.5995181">
        <ele>11.6732</ele>
        <time>2018-01-01T10:40:32Z</time>
      </trkpt>
      <trkpt lat="59.8731382" lon="17.5996559">
        <ele>11.6732</ele>
        <time>2018-01-01T10:40:35Z</time>
      </trkpt>
      <trkpt lat="59.873032" lon="17.5998206">
        <ele>12.6344</ele>
        <time>2018-01-01T10:40:41Z</time>
      </trkpt>
      <trkpt lat="59.8730004" lon="17.5999864">
        <ele>12.6344</ele>
        <time>2018-01-01T10:40:45Z</time>
      </trkpt>
      <trkpt lat="59.872914" lon="17.6002583">
        <ele>11.1925</ele>
        <time>2018-01-01T10:40:52Z</time>
      </trkpt>
      <trkpt lat="59.8728798" lon="17.6003238">
        <ele>11.1925</ele>
        <time>2018-01-01T10:40:54Z</time>
      </trkpt>
      <trkpt lat="59.872745" lon="17.6003882">
        <ele>11.6732</ele>
        <time>2018-01-01T10:41:00Z</time>
      </trkpt>
      <trkpt lat="59.8726062" lon="17.6003943">
        <ele>12.6344</ele>
        <time>2018-01-01T10:41:06Z</time>
      </trkpt>
      <trkpt lat="59.8724662" lon="17.6003625">
        <ele>13.1151</ele>
        <time>2018-01-01T10:41:12Z</time>
      </trkpt>
      <trkpt lat="59.8723341" lon="17.6002737">
        <ele>14.0764</ele>
        <time>2018-01-01T10:41:18Z</time>
      </trkpt>
      <trkpt lat="59.8722129" lon="17.6001552">
        <ele>14.0764</ele>
        <time>2018-01-01T10:41:24Z</time>
      </trkpt>
      <trkpt lat="59.8721064" lon="17.6000224">
        <ele>14.557</ele>
        <time>2018-01-01T10:41:30Z</time>
      </trkpt>
      <trkpt lat="59.8719882" lon="17.59988">
        <ele>14.557</ele>
        <time>2018-01-01T10:41:36Z</time>
      </trkpt>
      <trkpt lat="59.8718262" lon="17.5996906">
        <ele>16.4797</ele>
        <time>2018-01-01T10:41:44Z</time>
      </trkpt>
      <trkpt lat="59.8717116" lon="17.5995507">
        <ele>16.9604</ele>
        <time>2018-01-01T10:41:50Z</time>
      </trkpt>
      <trkpt lat="59.8715967" lon="17.5994082">
        <ele>16.9604</ele>
        <time>2018-01-01T10:41:56Z</time>
      </trkpt>
      <trkpt lat="59.8714424" lon="17.5992182">
        <ele>16.9604</ele>
        <time>2018-01-01T10:42:04Z</time>
      </trkpt>
      <trkpt lat="59.8712957" lon="17.5990361">
        <ele>16.4797</ele>
        <time>2018-01-01T10:42:12Z</time>
      </trkpt>
      <trkpt lat="59.8711419" lon="17.5988553">
        <ele>16.9604</ele>
        <time>2018-01-01T10:42:20Z</time>
      </trkpt>
      <trkpt lat="59.870985" lon="17.5986787">
        <ele>16.9604</ele>
        <time>2018-01-01T10:42:28Z</time>
      </trkpt>
      <trkpt lat="59.8708567" lon="17.5985416">
        <ele>16.9604</ele>
        <time>2018-01-01T10:42:34Z</time>
      </trkpt>
      <trkpt lat="59.8707735" lon="17.5985209">
        <ele>16.9604</ele>
        <time>2018-01-01T10:42:38Z</time>
      </trkpt>
      <trkpt lat="59.8706832" lon="17.5985945">
        <ele>16.9604</ele>
        <time>2018-01-01T10:42:42Z</time>
      </trkpt>
      <trkpt lat="59.8705813" lon="17.5985347">
        <ele>16.9604</ele>
        <time>2018-01-01T10:42:47Z</time>
      </trkpt>
      <trkpt lat="59.8704979" lon="17.5984388">
        <ele>16.4797</ele>
        <time>2018-01-01T10:42:52Z</time>
      </trkpt>
      <trkpt lat="59.8704157" lon="17.5984816">
        <ele>17.9218</ele>
        <time>2018-01-01T10:42:57Z</time>
      </trkpt>
      <trkpt lat="59.8703032" lon="17.5984538">
        <ele>18.4023</ele>
        <time>2018-01-01T10:43:02Z</time>
      </trkpt>
      <trkpt lat="59.870174" lon="17.5983208">
        <ele>19.3638</ele>
        <time>2018-01-01T10:43:08Z</time>
      </trkpt>
      <trkpt lat="59.8700742" lon="17.5982267">
        <ele>19.8444</ele>
        <time>2018-01-01T10:43:13Z</time>
      </trkpt>
      <trkpt lat="59.8699393" lon="17.59809">
        <ele>21.2864</ele>
        <time>2018-01-01T10:43:20Z</time>
      </trkpt>
      <trkpt lat="59.8698867" lon="17.5980301">
        <ele>21.767</ele>
        <time>2018-01-01T10:43:23Z</time>
      </trkpt>
      <trkpt lat="59.869966" lon="17.5980941">
        <ele>20.8057</ele>
        <time>2018-01-01T10:43:28Z</time>
      </trkpt>
      <trkpt lat="59.8699855" lon="17.5981158">
        <ele>20.8057</ele>
        <time>2018-01-01T10:43:29Z</time>
      </trkpt>
      <trkpt lat="59.8699804" lon="17.5981235">
        <ele>20.325</ele>
        <time>2018-01-01T10:43:33Z</time>
      </trkpt>
      <trkpt lat="59.8698419" lon="17.5979573">
        <ele>19.8444</ele>
        <time>2018-01-01T10:43:40Z</time>
      </trkpt>
      <trkpt lat="59.8696966" lon="17.597817">
        <ele>20.8057</ele>
        <time>2018-01-01T10:43:47Z</time>
      </trkpt>
      <trkpt lat="59.8695983" lon="17.5977558">
        <ele>21.2864</ele>
        <time>2018-01-01T10:43:52Z</time>
      </trkpt>
      <trkpt lat="59.8694857" lon="17.5977143">
        <ele>20.8057</ele>
        <time>2018-01-01T10:43:57Z</time>
      </trkpt>
      <trkpt lat="59.8693402" lon="17.5975603">
        <ele>20.8057</ele>
        <time>2018-01-01T10:44:04Z</time>
      </trkpt>
      <trkpt lat="59.869177" lon="17.5973938">
        <ele>21.2864</ele>
        <time>2018-01-01T10:44:12Z</time>
      </trkpt>
      <trkpt lat="59.8690579" lon="17.5972736">
        <ele>21.767</ele>
        <time>2018-01-01T10:44:18Z</time>
      </trkpt>
      <trkpt lat="59.8689194" lon="17.5971367">
        <ele>22.7283</ele>
        <time>2018-01-01T10:44:25Z</time>
      </trkpt>
      <trkpt lat="59.8687946" lon="17.5970242">
        <ele>23.6896</ele>
        <time>2018-01-01T10:44:31Z</time>
      </trkpt>
      <trkpt lat="59.8686476" lon="17.5969099">
        <ele>23.209</ele>
        <time>2018-01-01T10:44:38Z</time>
      </trkpt>
      <trkpt lat="59.8685215" lon="17.5968145">
        <ele>23.209</ele>
        <time>2018-01-01T10:44:44Z</time>
      </trkpt>
      <trkpt lat="59.8683739" lon="17.5966973">
        <ele>23.209</ele>
        <time>2018-01-01T10:44:51Z</time>
      </trkpt>
      <trkpt lat="59.8681771" lon="17.5965365">
        <ele>22.7283</ele>
        <time>2018-01-01T10:45:00Z</time>
      </trkpt>
      <trkpt lat="59.8679955" lon="17.5963898">
        <ele>23.209</ele>
        <time>2018-01-01T10:45:08Z</time>
      </trkpt>
      <trkpt lat="59.8678388" lon="17.5962711">
        <ele>23.209</ele>
        <time>2018-01-01T10:45:15Z</time>
      </trkpt>
      <trkpt lat="59.8676544" lon="17.5961472">
        <ele>23.209</ele>
        <time>2018-01-01T10:45:23Z</time>
      </trkpt>
      <trkpt lat="59.8674899" lon="17.5960422">
        <ele>23.209</ele>
        <time>2018-01-01T10:45:30Z</time>
      </trkpt>
      <trkpt lat="59.8673257" lon="17.5959348">
        <ele>23.6896</ele>
        <time>2018-01-01T10:45:37Z</time>
      </trkpt>
      <trkpt lat="59.8671607" lon="17.5958345">
        <ele>23.209</ele>
        <time>2018-01-01T10:45:44Z</time>
      </trkpt>
      <trkpt lat="59.8669903" lon="17.5957448">
        <ele>22.7283</ele>
        <time>2018-01-01T10:45:51Z</time>
      </trkpt>
      <trkpt lat="59.8668181" lon="17.5956542">
        <ele>21.2864</ele>
        <time>2018-01-01T10:45:58Z</time>
      </trkpt>
      <trkpt lat="59.8666722" lon="17.5955945">
        <ele>21.2864</ele>
        <time>2018-01-01T10:46:04Z</time>
      </trkpt>
      <trkpt lat="59.866552" lon="17.5955357">
        <ele>20.8057</ele>
        <time>2018-01-01T10:46:09Z</time>
      </trkpt>
      <trkpt lat="59.8664068" lon="17.5954682">
        <ele>20.8057</ele>
        <time>2018-01-01T10:46:15Z</time>
      </trkpt>
      <trkpt lat="59.8662661" lon="17.5954113">
        <ele>20.8057</ele>
        <time>2018-01-01T10:46:21Z</time>
      </trkpt>
      <trkpt lat="59.86607" lon="17.595346">
        <ele>21.2864</ele>
        <time>2018-01-01T10:46:29Z</time>
      </trkpt>
      <trkpt lat="59.8658996" lon="17.5952951">
        <ele>22.7283</ele>
        <time>2018-01-01T10:46:36Z</time>
      </trkpt>
      <trkpt lat="59.8657223" lon="17.5952468">
        <ele>22.7283</ele>
        <time>2018-01-01T10:46:43Z</time>
      </trkpt>
      <trkpt lat="59.865551" lon="17.5951971">
        <ele>23.209</ele>
        <time>2018-01-01T10:46:50Z</time>
      </trkpt>
      <trkpt lat="59.8653566" lon="17.5951441">
        <ele>22.7283</ele>
        <time>2018-01-01T10:46:58Z</time>
      </trkpt>
      <trkpt lat="59.8652085" lon="17.5951072">
        <ele>23.6896</ele>
        <time>2018-01-01T10:47:04Z</time>
      </trkpt>
      <trkpt lat="59.8650597" lon="17.5950793">
        <ele>23.6896</ele>
        <time>2018-01-01T10:47:10Z</time>
      </trkpt>
      <trkpt lat="59.8649153" lon="17.5950537">
        <ele>22.7283</ele>
        <time>2018-01-01T10:47:16Z</time>
      </trkpt>
      <trkpt lat="59.8647675" lon="17.5950283">
        <ele>22.7283</ele>
        <time>2018-01-01T10:47:22Z</time>
      </trkpt>
      <trkpt lat="59.8645812" lon="17.5949947">
        <ele>22.2476</ele>
        <time>2018-01-01T10:47:30Z</time>
      </trkpt>
      <trkpt lat="59.8644387" lon="17.5949818">
        <ele>21.2864</ele>
        <time>2018-01-01T10:47:36Z</time>
      </trkpt>
      <trkpt lat="59.8642952" lon="17.5949518">
        <ele>20.8057</ele>
        <time>2018-01-01T10:47:42Z</time>
      </trkpt>
      <trkpt lat="59.8641543" lon="17.594927">
        <ele>20.325</ele>
        <time>2018-01-01T10:47:48Z</time>
      </trkpt>
      <trkpt lat="59.8640359" lon="17.5949052">
        <ele>20.325</ele>
        <time>2018-01-01T10:47:53Z</time>
      </trkpt>
      <trkpt lat="59.8638708" lon="17.5948791">
        <ele>19.3638</ele>
        <time>2018-01-01T10:48:00Z</time>
      </trkpt>
      <trkpt lat="59.8637274" lon="17.5948653">
        <ele>19.8444</ele>
        <time>2018-01-01T10:48:06Z</time>
      </trkpt>
      <trkpt lat="59.8635882" lon="17.5948435">
        <ele>20.325</ele>
        <time>2018-01-01T10:48:12Z</time>
      </trkpt>
      <trkpt lat="59.8634224" lon="17.5948124">
        <ele>18.4023</ele>
        <time>2018-01-01T10:48:19Z</time>
      </trkpt>
      <trkpt lat="59.8632546" lon="17.5947757">
        <ele>17.9218</ele>
        <time>2018-01-01T10:48:26Z</time>
      </trkpt>
      <trkpt lat="59.8630843" lon="17.5947498">
        <ele>17.4412</ele>
        <time>2018-01-01T10:48:33Z</time>
      </trkpt>
      <trkpt lat="59.8628687" lon="17.5947117">
        <ele>16.4797</ele>
        <time>2018-01-01T10:48:42Z</time>
      </trkpt>
      <trkpt lat="59.8626774" lon="17.5946782">
        <ele>17.4412</ele>
        <time>2018-01-01T10:48:50Z</time>
      </trkpt>
      <trkpt lat="59.8625105" lon="17.5946441">
        <ele>17.4412</ele>
        <time>2018-01-01T10:48:57Z</time>
      </trkpt>
      <trkpt lat="59.8622978" lon="17.5946021">
        <ele>18.4023</ele>
        <time>2018-01-01T10:49:06Z</time>
      </trkpt>
      <trkpt lat="59.862131" lon="17.5945757">
        <ele>17.9218</ele>
        <time>2018-01-01T10:49:13Z</time>
      </trkpt>
      <trkpt lat="59.8619393" lon="17.5945405">
        <ele>18.4023</ele>
        <time>2018-01-01T10:49:21Z</time>
      </trkpt>
      <trkpt lat="59.8617981" lon="17.5945294">
        <ele>19.3638</ele>
        <time>2018-01-01T10:49:27Z</time>
      </trkpt>
      <trkpt lat="59.8616299" lon="17.594503">
        <ele>19.3638</ele>
        <time>2018-01-01T10:49:34Z</time>
      </trkpt>
      <trkpt lat="59.8614577" lon="17.5944835">
        <ele>18.8831</ele>
        <time>2018-01-01T10:49:41Z</time>
      </trkpt>
      <trkpt lat="59.8612928" lon="17.5944585">
        <ele>18.8831</ele>
        <time>2018-01-01T10:49:48Z</time>
      </trkpt>
      <trkpt lat="59.8611319" lon="17.5944291">
        <ele>19.3638</ele>
        <time>2018-01-01T10:49:55Z</time>
      </trkpt>
      <trkpt lat="59.8609703" lon="17.5943984">
        <ele>18.8831</ele>
        <time>2018-01-01T10:50:02Z</time>
      </trkpt>
      <trkpt lat="59.8608313" lon="17.5943655">
        <ele>18.8831</ele>
        <time>2018-01-01T10:50:08Z</time>
      </trkpt>
      <trkpt lat="59.8606686" lon="17.5943496">
        <ele>19.8444</ele>
        <time>2018-01-01T10:50:15Z</time>
      </trkpt>
      <trkpt lat="59.860544" lon="17.5943281">
        <ele>19.8444</ele>
        <time>2018-01-01T10:50:20Z</time>
      </trkpt>
      <trkpt lat="59.8603764" lon="17.5942959">
        <ele>19.8444</ele>
        <time>2018-01-01T10:50:27Z</time>
      </trkpt>
      <trkpt lat="59.8602382" lon="17.594282">
        <ele>19.8444</ele>
        <time>2018-01-01T10:50:33Z</time>
      </trkpt>
      <trkpt lat="59.8600927" lon="17.5942525">
        <ele>19.8444</ele>
        <time>2018-01-01T10:50:39Z</time>
      </trkpt>
      <trkpt lat="59.8599479" lon="17.59423">
        <ele>20.8057</ele>
        <time>2018-01-01T10:50:45Z</time>
      </trkpt>
      <trkpt lat="59.8598015" lon="17.5941985">
        <ele>20.8057</ele>
        <time>2018-01-01T10:50:51Z</time>
      </trkpt>
      <trkpt lat="59.8596467" lon="17.5941654">
        <ele>21.2864</ele>
        <time>2018-01-01T10:50:57Z</time>
      </trkpt>
      <trkpt lat="59.8595126" lon="17.5941562">
        <ele>20.8057</ele>
        <time>2018-01-01T10:51:02Z</time>
      </trkpt>
      <trkpt lat="59.8593593" lon="17.5941639">
        <ele>20.8057</ele>
        <time>2018-01-01T10:51:08Z</time>
      </trkpt>
      <trkpt lat="59.8592668" lon="17.5942121">
        <ele>19.8444</ele>
        <time>2018-01-01T10:51:12Z</time>
      </trkpt>
      <trkpt lat="59.8592222" lon="17.5943013">
        <ele>18.8831</ele>
        <time>2018-01-01T10:51:16Z</time>
      </trkpt>
      <trkpt lat="59.8591861" lon="17.5942919">
        <ele>17.4412</ele>
        <time>2018-01-01T10:51:21Z</time>
      </trkpt>
      <trkpt lat="59.8591686" lon="17.594281">
        <ele>17.4412</ele>
        <time>2018-01-01T10:51:22Z</time>
      </trkpt>
      <trkpt lat="59.8591395" lon="17.5944358">
        <ele>15.5184</ele>
        <time>2018-01-01T10:51:26Z</time>
      </trkpt>
      <trkpt lat="59.8591202" lon="17.5948123">
        <ele>14.0764</ele>
        <time>2018-01-01T10:51:33Z</time>
      </trkpt>
      <trkpt lat="59.8591135" lon="17.5950532">
        <ele>15.0377</ele>
        <time>2018-01-01T10:51:38Z</time>
      </trkpt>
      <trkpt lat="59.8590992" lon="17.5954228">
        <ele>14.0764</ele>
        <time>2018-01-01T10:51:45Z</time>
      </trkpt>
      <trkpt lat="59.8590909" lon="17.5957853">
        <ele>14.557</ele>
        <time>2018-01-01T10:51:52Z</time>
      </trkpt>
      <trkpt lat="59.8590772" lon="17.5961582">
        <ele>14.557</ele>
        <time>2018-01-01T10:51:59Z</time>
      </trkpt>
      <trkpt lat="59.8590644" lon="17.5964766">
        <ele>14.557</ele>
        <time>2018-01-01T10:52:05Z</time>
      </trkpt>
      <trkpt lat="59.8590535" lon="17.5968342">
        <ele>14.557</ele>
        <time>2018-01-01T10:52:12Z</time>
      </trkpt>
      <trkpt lat="59.8590499" lon="17.5971528">
        <ele>14.557</ele>
        <time>2018-01-01T10:52:18Z</time>
      </trkpt>
      <trkpt lat="59.8590839" lon="17.5974585">
        <ele>14.0764</ele>
        <time>2018-01-01T10:52:24Z</time>
      </trkpt>
      <trkpt lat="59.8591856" lon="17.5977071">
        <ele>13.5958</ele>
        <time>2018-01-01T10:52:30Z</time>
      </trkpt>
      <trkpt lat="59.8593001" lon="17.5980011">
        <ele>14.0764</ele>
        <time>2018-01-01T10:52:37Z</time>
      </trkpt>
      <trkpt lat="59.8593426" lon="17.5983041">
        <ele>15.0377</ele>
        <time>2018-01-01T10:52:43Z</time>
      </trkpt>
      <trkpt lat="59.8593364" lon="17.5986061">
        <ele>16.9604</ele>
        <time>2018-01-01T10:52:49Z</time>
      </trkpt>
      <trkpt lat="59.8592825" lon="17.598874">
        <ele>18.4023</ele>
        <time>2018-01-01T10:52:55Z</time>
      </trkpt>
      <trkpt lat="59.8592276" lon="17.5991516">
        <ele>18.8831</ele>
        <time>2018-01-01T10:53:01Z</time>
      </trkpt>
      <trkpt lat="59.8591582" lon="17.5993419">
        <ele>19.3638</ele>
        <time>2018-01-01T10:53:06Z</time>
      </trkpt>
      <trkpt lat="59.8590655" lon="17.599589">
        <ele>18.4023</ele>
        <time>2018-01-01T10:53:12Z</time>
      </trkpt>
      <trkpt lat="59.8589629" lon="17.5999353">
        <ele>19.3638</ele>
        <time>2018-01-01T10:53:20Z</time>
      </trkpt>
      <trkpt lat="59.8588871" lon="17.6001964">
        <ele>21.2864</ele>
        <time>2018-01-01T10:53:26Z</time>
      </trkpt>
      <trkpt lat="59.8587956" lon="17.6004934">
        <ele>22.2476</ele>
        <time>2018-01-01T10:53:33Z</time>
      </trkpt>
      <trkpt lat="59.8587236" lon="17.600754">
        <ele>22.7283</ele>
        <time>2018-01-01T10:53:39Z</time>
      </trkpt>
      <trkpt lat="59.8586479" lon="17.6010098">
        <ele>24.1703</ele>
        <time>2018-01-01T10:53:45Z</time>
      </trkpt>
      <trkpt lat="59.8585737" lon="17.6012388">
        <ele>24.651</ele>
        <time>2018-01-01T10:53:51Z</time>
      </trkpt>
      <trkpt lat="59.858493" lon="17.601478">
        <ele>24.651</ele>
        <time>2018-01-01T10:53:57Z</time>
      </trkpt>
      <trkpt lat="59.8584086" lon="17.6017305">
        <ele>26.5736</ele>
        <time>2018-01-01T10:54:03Z</time>
      </trkpt>
      <trkpt lat="59.858304" lon="17.6020266">
        <ele>29.9381</ele>
        <time>2018-01-01T10:54:10Z</time>
      </trkpt>
      <trkpt lat="59.8582092" lon="17.6022597">
        <ele>31.3801</ele>
        <time>2018-01-01T10:54:16Z</time>
      </trkpt>
      <trkpt lat="59.8580859" lon="17.6025145">
        <ele>31.3801</ele>
        <time>2018-01-01T10:54:23Z</time>
      </trkpt>
      <trkpt lat="59.857964" lon="17.6027844">
        <ele>32.8223</ele>
        <time>2018-01-01T10:54:30Z</time>
      </trkpt>
      <trkpt lat="59.8578726" lon="17.603086">
        <ele>32.3416</ele>
        <time>2018-01-01T10:54:37Z</time>
      </trkpt>
      <trkpt lat="59.8578739" lon="17.6033758">
        <ele>33.3029</ele>
        <time>2018-01-01T10:54:43Z</time>
      </trkpt>
      <trkpt lat="59.8578217" lon="17.603513">
        <ele>34.7449</ele>
        <time>2018-01-01T10:54:47Z</time>
      </trkpt>
      <trkpt lat="59.8578003" lon="17.6035371">
        <ele>34.7449</ele>
        <time>2018-01-01T10:54:48Z</time>
      </trkpt>
      <trkpt lat="59.8576614" lon="17.603703">
        <ele>33.3029</ele>
        <time>2018-01-01T10:54:54Z</time>
      </trkpt>
      <trkpt lat="59.8575798" lon="17.6038242">
        <ele>32.8223</ele>
        <time>2018-01-01T10:54:58Z</time>
      </trkpt>
      <trkpt lat="59.8575228" lon="17.6039618">
        <ele>33.7834</ele>
        <time>2018-01-01T10:55:02Z</time>
      </trkpt>
      <trkpt lat="59.8573947" lon="17.6041485">
        <ele>33.7834</ele>
        <time>2018-01-01T10:55:08Z</time>
      </trkpt>
      <trkpt lat="59.8573084" lon="17.604249">
        <ele>31.3801</ele>
        <time>2018-01-01T10:55:12Z</time>
      </trkpt>
      <trkpt lat="59.8572275" lon="17.6043899">
        <ele>28.4962</ele>
        <time>2018-01-01T10:55:16Z</time>
      </trkpt>
      <trkpt lat="59.8571934" lon="17.6044659">
        <ele>28.0155</ele>
        <time>2018-01-01T10:55:18Z</time>
      </trkpt>
      <trkpt lat="59.8571258" lon="17.6047435">
        <ele>25.6123</ele>
        <time>2018-01-01T10:55:24Z</time>
      </trkpt>
      <trkpt lat="59.8570882" lon="17.6048835">
        <ele>24.1703</ele>
        <time>2018-01-01T10:55:27Z</time>
      </trkpt>
      <trkpt lat="59.8571312" lon="17.6050567">
        <ele>26.0929</ele>
        <time>2018-01-01T10:55:31Z</time>
      </trkpt>
      <trkpt lat="59.8572486" lon="17.6052803">
        <ele>28.4962</ele>
        <time>2018-01-01T10:55:37Z</time>
      </trkpt>
      <trkpt lat="59.8573642" lon="17.6055119">
        <ele>29.4575</ele>
        <time>2018-01-01T10:55:43Z</time>
      </trkpt>
      <trkpt lat="59.8574867" lon="17.6058585">
        <ele>28.9769</ele>
        <time>2018-01-01T10:55:50Z</time>
      </trkpt>
      <trkpt lat="59.8575725" lon="17.6061989">
        <ele>26.0929</ele>
        <time>2018-01-01T10:55:56Z</time>
      </trkpt>
      <trkpt lat="59.8576653" lon="17.6064759">
        <ele>23.6896</ele>
        <time>2018-01-01T10:56:01Z</time>
      </trkpt>
      <trkpt lat="59.8577274" lon="17.6067607">
        <ele>20.8057</ele>
        <time>2018-01-01T10:56:06Z</time>
      </trkpt>
      <trkpt lat="59.8577873" lon="17.6069842">
        <ele>18.4023</ele>
        <time>2018-01-01T10:56:10Z</time>
      </trkpt>
      <trkpt lat="59.8578845" lon="17.6072608">
        <ele>17.9218</ele>
        <time>2018-01-01T10:56:15Z</time>
      </trkpt>
      <trkpt lat="59.8579786" lon="17.6075291">
        <ele>16.4797</ele>
        <time>2018-01-01T10:56:20Z</time>
      </trkpt>
      <trkpt lat="59.8580845" lon="17.6079443">
        <ele>17.4412</ele>
        <time>2018-01-01T10:56:27Z</time>
      </trkpt>
      <trkpt lat="59.8581361" lon="17.6081301">
        <ele>18.4023</ele>
        <time>2018-01-01T10:56:31Z</time>
      </trkpt>
      <trkpt lat="59.8580537" lon="17.6080715">
        <ele>18.8831</ele>
        <time>2018-01-01T10:56:36Z</time>
      </trkpt>
      <trkpt lat="59.8580171" lon="17.6079891">
        <ele>20.325</ele>
        <time>2018-01-01T10:56:39Z</time>
      </trkpt>
      <trkpt lat="59.857995" lon="17.6079928">
        <ele>20.325</ele>
        <time>2018-01-01T10:56:40Z</time>
      </trkpt>
      <trkpt lat="59.8578507" lon="17.6080845">
        <ele>19.8444</ele>
        <time>2018-01-01T10:56:46Z</time>
      </trkpt>
      <trkpt lat="59.8577258" lon="17.6081909">
        <ele>19.8444</ele>
        <time>2018-01-01T10:56:51Z</time>
      </trkpt>
      <trkpt lat="59.8576118" lon="17.6082926">
        <ele>20.325</ele>
        <time>2018-01-01T10:56:56Z</time>
      </trkpt>
      <trkpt lat="59.8575026" lon="17.6083768">
        <ele>19.8444</ele>
        <time>2018-01-01T10:57:01Z</time>
      </trkpt>
      <trkpt lat="59.8574154" lon="17.6084357">
        <ele>20.8057</ele>
        <time>2018-01-01T10:57:05Z</time>
      </trkpt>
      <trkpt lat="59.8573276" lon="17.6085346">
        <ele>21.2864</ele>
        <time>2018-01-01T10:57:09Z</time>
      </trkpt>
      <trkpt lat="59.8571914" lon="17.6086928">
        <ele>21.767</ele>
        <time>2018-01-01T10:57:15Z</time>
      </trkpt>
      <trkpt lat="59.8570706" lon="17.6088158">
        <ele>19.8444</ele>
        <time>2018-01-01T10:57:20Z</time>
      </trkpt>
      <trkpt lat="59.8569727" lon="17.6089147">
        <ele>18.8831</ele>
        <time>2018-01-01T10:57:24Z</time>
      </trkpt>
      <trkpt lat="59.8568432" lon="17.6090515">
        <ele>17.9218</ele>
        <time>2018-01-01T10:57:29Z</time>
      </trkpt>
      <trkpt lat="59.8567152" lon="17.6091991">
        <ele>15.999</ele>
        <time>2018-01-01T10:57:35Z</time>
      </trkpt>
      <trkpt lat="59.8566001" lon="17.6093377">
        <ele>16.9604</ele>
        <time>2018-01-01T10:57:40Z</time>
      </trkpt>
      <trkpt lat="59.8564815" lon="17.6094712">
        <ele>17.9218</ele>
        <time>2018-01-01T10:57:45Z</time>
      </trkpt>
      <trkpt lat="59.8562714" lon="17.6097198">
        <ele>17.9218</ele>
        <time>2018-01-01T10:57:54Z</time>
      </trkpt>
      <trkpt lat="59.8561377" lon="17.6098441">
        <ele>15.999</ele>
        <time>2018-01-01T10:58:00Z</time>
      </trkpt>
      <trkpt lat="59.856028" lon="17.6099901">
        <ele>16.4797</ele>
        <time>2018-01-01T10:58:05Z</time>
      </trkpt>
      <trkpt lat="59.8558869" lon="17.6101176">
        <ele>16.4797</ele>
        <time>2018-01-01T10:58:11Z</time>
      </trkpt>
      <trkpt lat="59.8557594" lon="17.610285">
        <ele>15.5184</ele>
        <time>2018-01-01T10:58:16Z</time>
      </trkpt>
      <trkpt lat="59.8556305" lon="17.6103848">
        <ele>15.5184</ele>
        <time>2018-01-01T10:58:21Z</time>
      </trkpt>
      <trkpt lat="59.8554772" lon="17.6105158">
        <ele>15.5184</ele>
        <time>2018-01-01T10:58:28Z</time>
      </trkpt>
      <trkpt lat="59.8553648" lon="17.610609">
        <ele>15.999</ele>
        <time>2018-01-01T10:58:33Z</time>
      </trkpt>
      <trkpt lat="59.8552317" lon="17.6107245">
        <ele>16.4797</ele>
        <time>2018-01-01T10:58:39Z</time>
      </trkpt>
      <trkpt lat="59.8552083" lon="17.6107353">
        <ele>16.4797</ele>
        <time>2018-01-01T10:58:40Z</time>
      </trkpt>
      <trkpt lat="59.8550836" lon="17.6108081">
        <ele>15.999</ele>
        <time>2018-01-01T10:58:45Z</time>
      </trkpt>
      <trkpt lat="59.85494" lon="17.6108739">
        <ele>17.9218</ele>
        <time>2018-01-01T10:58:51Z</time>
      </trkpt>
      <trkpt lat="59.8548224" lon="17.6109464">
        <ele>19.8444</ele>
        <time>2018-01-01T10:58:56Z</time>
      </trkpt>
      <trkpt lat="59.85468" lon="17.6110002">
        <ele>20.8057</ele>
        <time>2018-01-01T10:59:02Z</time>
      </trkpt>
      <trkpt lat="59.8546176" lon="17.6110021">
        <ele>20.8057</ele>
        <time>2018-01-01T10:59:05Z</time>
      </trkpt>
      <trkpt lat="59.8544842" lon="17.6110733">
        <ele>19.8444</ele>
        <time>2018-01-01T10:59:11Z</time>
      </trkpt>
      <trkpt lat="59.8543436" lon="17.6111349">
        <ele>20.8057</ele>
        <time>2018-01-01T10:59:17Z</time>
      </trkpt>
      <trkpt lat="59.8542013" lon="17.6111898">
        <ele>20.8057</ele>
        <time>2018-01-01T10:59:23Z</time>
      </trkpt>
      <trkpt lat="59.8540693" lon="17.6112104">
        <ele>18.8831</ele>
        <time>2018-01-01T10:59:28Z</time>
      </trkpt>
      <trkpt lat="59.8539796" lon="17.6112164">
        <ele>17.9218</ele>
        <time>2018-01-01T10:59:32Z</time>
      </trkpt>
      <trkpt lat="59.8538469" lon="17.6112374">
        <ele>18.4023</ele>
        <time>2018-01-01T10:59:37Z</time>
      </trkpt>
      <trkpt lat="59.8537372" lon="17.6112186">
        <ele>19.8444</ele>
        <time>2018-01-01T10:59:42Z</time>
      </trkpt>
      <trkpt lat="59.8537187" lon="17.6112278">
        <ele>19.8444</ele>
        <time>2018-01-01T10:59:43Z</time>
      </trkpt>
      <trkpt lat="59.8536098" lon="17.6112489">
        <ele>18.8831</ele>
        <time>2018-01-01T10:59:48Z</time>
      </trkpt>
      <trkpt lat="59.853494" lon="17.6112121">
        <ele>17.4412</ele>
        <time>2018-01-01T10:59:53Z</time>
      </trkpt>
      <trkpt lat="59.8533161" lon="17.6111725">
        <ele>17.9218</ele>
        <time>2018-01-01T11:00:00Z</time>
      </trkpt>
      <trkpt lat="59.8532133" lon="17.6111685">
        <ele>18.4023</ele>
        <time>2018-01-01T11:00:04Z</time>
      </trkpt>
      <trkpt lat="59.8530529" lon="17.6110935">
        <ele>18.8831</ele>
        <time>2018-01-01T11:00:10Z</time>
      </trkpt>
      <trkpt lat="59.8529048" lon="17.6110229">
        <ele>18.4023</ele>
        <time>2018-01-01T11:00:16Z</time>
      </trkpt>
      <trkpt lat="59.8528888" lon="17.6110185">
        <ele>18.8831</ele>
        <time>2018-01-01T11:00:17Z</time>
      </trkpt>
      <trkpt lat="59.8527675" lon="17.6109612">
        <ele>19.3638</ele>
        <time>2018-01-01T11:00:22Z</time>
      </trkpt>
      <trkpt lat="59.8526789" lon="17.6109152">
        <ele>19.3638</ele>
        <time>2018-01-01T11:00:25Z</time>
      </trkpt>
      <trkpt lat="59.8525583" lon="17.6108643">
        <ele>20.325</ele>
        <time>2018-01-01T11:00:31Z</time>
      </trkpt>
      <trkpt lat="59.8524659" lon="17.6108219">
        <ele>20.325</ele>
        <time>2018-01-01T11:00:35Z</time>
      </trkpt>
      <trkpt lat="59.8523622" lon="17.6107533">
        <ele>21.2864</ele>
        <time>2018-01-01T11:00:40Z</time>
      </trkpt>
      <trkpt lat="59.8522308" lon="17.6106405">
        <ele>20.8057</ele>
        <time>2018-01-01T11:00:46Z</time>
      </trkpt>
      <trkpt lat="59.8520711" lon="17.6105241">
        <ele>21.2864</ele>
        <time>2018-01-01T11:00:52Z</time>
      </trkpt>
      <trkpt lat="59.8519372" lon="17.6104432">
        <ele>21.767</ele>
        <time>2018-01-01T11:00:57Z</time>
      </trkpt>
      <trkpt lat="59.8518054" lon="17.6103127">
        <ele>20.8057</ele>
        <time>2018-01-01T11:01:03Z</time>
      </trkpt>
      <trkpt lat="59.8516553" lon="17.6101409">
        <ele>21.2864</ele>
        <time>2018-01-01T11:01:10Z</time>
      </trkpt>
      <trkpt lat="59.8515551" lon="17.61002">
        <ele>21.2864</ele>
        <time>2018-01-01T11:01:15Z</time>
      </trkpt>
      <trkpt lat="59.8513933" lon="17.6098627">
        <ele>21.2864</ele>
        <time>2018-01-01T11:01:22Z</time>
      </trkpt>
      <trkpt lat="59.8513234" lon="17.6097518">
        <ele>21.2864</ele>
        <time>2018-01-01T11:01:26Z</time>
      </trkpt>
      <trkpt lat="59.8512118" lon="17.6096463">
        <ele>21.767</ele>
        <time>2018-01-01T11:01:31Z</time>
      </trkpt>
      <trkpt lat="59.8511045" lon="17.6095104">
        <ele>21.767</ele>
        <time>2018-01-01T11:01:37Z</time>
      </trkpt>
      <trkpt lat="59.8509513" lon="17.6093519">
        <ele>21.767</ele>
        <time>2018-01-01T11:01:43Z</time>
      </trkpt>
      <trkpt lat="59.850859" lon="17.6092488">
        <ele>21.2864</ele>
        <time>2018-01-01T11:01:47Z</time>
      </trkpt>
      <trkpt lat="59.8507634" lon="17.6091381">
        <ele>21.2864</ele>
        <time>2018-01-01T11:01:52Z</time>
      </trkpt>
      <trkpt lat="59.8506664" lon="17.6090328">
        <ele>20.8057</ele>
        <time>2018-01-01T11:01:56Z</time>
      </trkpt>
      <trkpt lat="59.850566" lon="17.6088842">
        <ele>21.767</ele>
        <time>2018-01-01T11:02:02Z</time>
      </trkpt>
      <trkpt lat="59.8504623" lon="17.6087656">
        <ele>21.767</ele>
        <time>2018-01-01T11:02:06Z</time>
      </trkpt>
      <trkpt lat="59.8503599" lon="17.6086469">
        <ele>22.7283</ele>
        <time>2018-01-01T11:02:11Z</time>
      </trkpt>
      <trkpt lat="59.8502038" lon="17.6084921">
        <ele>22.7283</ele>
        <time>2018-01-01T11:02:18Z</time>
      </trkpt>
      <trkpt lat="59.8501214" lon="17.6083903">
        <ele>21.767</ele>
        <time>2018-01-01T11:02:22Z</time>
      </trkpt>
      <trkpt lat="59.8500433" lon="17.6082072">
        <ele>21.2864</ele>
        <time>2018-01-01T11:02:27Z</time>
      </trkpt>
      <trkpt lat="59.8499744" lon="17.6080169">
        <ele>21.2864</ele>
        <time>2018-01-01T11:02:32Z</time>
      </trkpt>
      <trkpt lat="59.8498704" lon="17.6078772">
        <ele>22.2476</ele>
        <time>2018-01-01T11:02:37Z</time>
      </trkpt>
      <trkpt lat="59.8497406" lon="17.6077497">
        <ele>23.6896</ele>
        <time>2018-01-01T11:02:43Z</time>
      </trkpt>
      <trkpt lat="59.8496257" lon="17.6076214">
        <ele>23.6896</ele>
        <time>2018-01-01T11:02:48Z</time>
      </trkpt>
      <trkpt lat="59.8495497" lon="17.6075312">
        <ele>24.1703</ele>
        <time>2018-01-01T11:02:52Z</time>
      </trkpt>
      <trkpt lat="59.8494652" lon="17.6074336">
        <ele>25.1317</ele>
        <time>2018-01-01T11:02:56Z</time>
      </trkpt>
      <trkpt lat="59.8493407" lon="17.6072903">
        <ele>26.0929</ele>
        <time>2018-01-01T11:03:02Z</time>
      </trkpt>
      <trkpt lat="59.8492175" lon="17.6071379">
        <ele>25.6123</ele>
        <time>2018-01-01T11:03:08Z</time>
      </trkpt>
      <trkpt lat="59.8491206" lon="17.6070098">
        <ele>25.6123</ele>
        <time>2018-01-01T11:03:13Z</time>
      </trkpt>
      <trkpt lat="59.8490673" lon="17.6069246">
        <ele>26.0929</ele>
        <time>2018-01-01T11:03:16Z</time>
      </trkpt>
      <trkpt lat="59.8490347" lon="17.6067117">
        <ele>25.6123</ele>
        <time>2018-01-01T11:03:21Z</time>
      </trkpt>
      <trkpt lat="59.8490581" lon="17.6065594">
        <ele>25.1317</ele>
        <time>2018-01-01T11:03:25Z</time>
      </trkpt>
      <trkpt lat="59.8491259" lon="17.6064511">
        <ele>25.1317</ele>
        <time>2018-01-01T11:03:29Z</time>
      </trkpt>
      <trkpt lat="59.8491571" lon="17.6063977">
        <ele>25.1317</ele>
        <time>2018-01-01T11:03:31Z</time>
      </trkpt>
      <trkpt lat="59.8492989" lon="17.6061813">
        <ele>26.0929</ele>
        <time>2018-01-01T11:03:39Z</time>
      </trkpt>
      <trkpt lat="59.8493661" lon="17.6060745">
        <ele>27.5349</ele>
        <time>2018-01-01T11:03:43Z</time>
      </trkpt>
      <trkpt lat="59.8494651" lon="17.605948">
        <ele>25.6123</ele>
        <time>2018-01-01T11:03:49Z</time>
      </trkpt>
      <trkpt lat="59.8495806" lon="17.605875">
        <ele>24.651</ele>
        <time>2018-01-01T11:03:55Z</time>
      </trkpt>
      <trkpt lat="59.8496978" lon="17.6058491">
        <ele>24.651</ele>
        <time>2018-01-01T11:04:01Z</time>
      </trkpt>
      <trkpt lat="59.8497164" lon="17.6058304">
        <ele>24.651</ele>
        <time>2018-01-01T11:04:02Z</time>
      </trkpt>
      <trkpt lat="59.8498329" lon="17.6057589">
        <ele>23.209</ele>
        <time>2018-01-01T11:04:08Z</time>
      </trkpt>
      <trkpt lat="59.8498877" lon="17.6057571">
        <ele>22.2476</ele>
        <time>2018-01-01T11:04:11Z</time>
      </trkpt>
      <trkpt lat="59.8499597" lon="17.6057125">
        <ele>20.8057</ele>
        <time>2018-01-01T11:04:15Z</time>
      </trkpt>
      <trkpt lat="59.8500744" lon="17.6055316">
        <ele>19.3638</ele>
        <time>2018-01-01T11:04:21Z</time>
      </trkpt>
      <trkpt lat="59.8501405" lon="17.6053736">
        <ele>18.4023</ele>
        <time>2018-01-01T11:04:25Z</time>
      </trkpt>
      <trkpt lat="59.8501887" lon="17.6052742">
        <ele>17.4412</ele>
        <time>2018-01-01T11:04:28Z</time>
      </trkpt>
      <trkpt lat="59.850199" lon="17.6051499">
        <ele>15.999</ele>
        <time>2018-01-01T11:04:33Z</time>
      </trkpt>
      <trkpt lat="59.8501325" lon="17.6050686">
        <ele>16.4797</ele>
        <time>2018-01-01T11:04:37Z</time>
      </trkpt>
      <trkpt lat="59.8500681" lon="17.604983">
        <ele>17.9218</ele>
        <time>2018-01-01T11:04:40Z</time>
      </trkpt>
      <trkpt lat="59.8498552" lon="17.6047163">
        <ele>19.8444</ele>
        <time>2018-01-01T11:04:50Z</time>
      </trkpt>
      <trkpt lat="59.8497064" lon="17.6045211">
        <ele>20.8057</ele>
        <time>2018-01-01T11:04:57Z</time>
      </trkpt>
      <trkpt lat="59.849607" lon="17.6043904">
        <ele>21.767</ele>
        <time>2018-01-01T11:05:02Z</time>
      </trkpt>
      <trkpt lat="59.8495952" lon="17.6043548">
        <ele>21.767</ele>
        <time>2018-01-01T11:05:03Z</time>
      </trkpt>
      <trkpt lat="59.8495988" lon="17.6042827">
        <ele>22.7283</ele>
        <time>2018-01-01T11:05:05Z</time>
      </trkpt>
    </trkseg>
  </trk>
</gpx>